createdAt,value
2019-05-07T00:02:23.449Z,101122.69
2019-05-07T00:04:52.234Z,101122.42
2019-05-07T00:07:19.218Z,101125.63
2019-05-07T00:09:46.183Z,101117.53
2019-05-07T00:12:14.955Z,101122.98
2019-05-07T00:14:43.014Z,101123.67
2019-05-07T00:17:12.925Z,101128.75
2019-05-07T00:19:39.789Z,101131.77
2019-05-07T00:22:06.969Z,101135.58
2019-05-07T00:24:34.085Z,101140.25
2019-05-07T00:27:02.773Z,101135.61
2019-05-07T00:29:31.976Z,101135.98
2019-05-07T00:31:58.838Z,101138.23
2019-05-07T00:34:27.454Z,101137.20
2019-05-07T00:37:02.239Z,101131.97
2019-05-07T00:39:39.878Z,101134.79
2019-05-07T00:42:12.700Z,101140.77
2019-05-07T00:44:56.900Z,101141.20
2019-05-07T00:47:23.672Z,101135.08
2019-05-07T00:49:52.250Z,101139.08
2019-05-07T00:52:19.130Z,101142.02
2019-05-07T00:54:46.383Z,101143.91
2019-05-07T00:57:13.361Z,101141.39
2019-05-07T00:59:42.915Z,101147.00
2019-05-07T01:02:09.629Z,101142.41
2019-05-07T01:04:36.726Z,101140.31
2019-05-07T01:07:04.247Z,101138.45
2019-05-07T01:09:32.363Z,101145.13
2019-05-07T01:11:59.528Z,101144.80
2019-05-07T01:14:26.413Z,101142.94
2019-05-07T01:16:55.040Z,101146.91
2019-05-07T01:19:21.998Z,101145.87
2019-05-07T01:21:48.953Z,101148.17
2019-05-07T01:24:16.287Z,101152.80
2019-05-07T01:26:43.664Z,101147.41
2019-05-07T01:29:12.403Z,101146.55
2019-05-07T01:31:44.874Z,101153.47
2019-05-07T01:34:28.541Z,101147.41
2019-05-07T01:36:56.128Z,101150.47
2019-05-07T01:39:23.289Z,101146.73
2019-05-07T01:41:52.315Z,101147.98
2019-05-07T01:44:18.884Z,101152.64
2019-05-07T01:46:47.161Z,101158.94
2019-05-07T01:49:15.243Z,101159.83
2019-05-07T01:51:42.408Z,101166.12
2019-05-07T01:54:09.559Z,101158.78
2019-05-07T01:56:36.252Z,101166.09
2019-05-07T01:59:03.207Z,101162.23
2019-05-07T02:01:30.196Z,101165.73
2019-05-07T02:04:04.967Z,101167.89
2019-05-07T02:06:33.684Z,101168.96
2019-05-07T02:09:05.228Z,101169.19
2019-05-07T02:11:42.342Z,101170.02
2019-05-07T02:14:09.295Z,101172.23
2019-05-07T02:16:36.436Z,101168.73
2019-05-07T02:19:04.081Z,101159.84
2019-05-07T02:21:32.945Z,101155.13
2019-05-07T02:23:59.671Z,101163.38
2019-05-07T02:26:26.965Z,101160.80
2019-05-07T02:28:54.236Z,101152.13
2019-05-07T02:31:23.296Z,101147.83
2019-05-07T02:33:53.796Z,101163.73
2019-05-07T02:36:23.398Z,101157.62
2019-05-07T02:38:53.122Z,101157.58
2019-05-07T02:41:23.362Z,101162.84
2019-05-07T02:43:50.234Z,101164.45
2019-05-07T02:46:36.589Z,101161.48
2019-05-07T02:49:05.760Z,101164.38
2019-05-07T02:51:34.655Z,101158.06
2019-05-07T02:54:06.407Z,101160.65
2019-05-07T02:56:34.580Z,101161.77
2019-05-07T02:59:04.051Z,101167.05
2019-05-07T03:01:33.295Z,101169.72
2019-05-07T03:03:59.490Z,101165.37
2019-05-07T03:06:26.296Z,101166.52
2019-05-07T03:08:53.581Z,101169.69
2019-05-07T03:11:22.908Z,101171.47
2019-05-07T03:13:53.518Z,101165.24
2019-05-07T03:16:35.345Z,101170.27
2019-05-07T03:18:48.057Z,101170.16
2019-05-07T03:21:16.694Z,101171.16
2019-05-07T03:23:58.400Z,101167.72
2019-05-07T03:26:26.959Z,101177.88
2019-05-07T03:28:55.671Z,101175.59
2019-05-07T03:31:36.035Z,101178.64
2019-05-07T03:34:16.083Z,101182.77
2019-05-07T03:36:49.211Z,101184.00
2019-05-07T03:39:16.242Z,101179.45
2019-05-07T03:41:43.523Z,101189.82
2019-05-07T03:44:13.297Z,101183.14
2019-05-07T03:46:56.815Z,101178.86
2019-05-07T03:49:13.577Z,101182.45
2019-05-07T03:51:39.321Z,101181.15
2019-05-07T03:54:06.318Z,101188.39
2019-05-07T03:56:33.127Z,101187.22
2019-05-07T03:58:59.870Z,101185.05
2019-05-07T04:01:26.621Z,101182.65
2019-05-07T04:03:53.444Z,101177.70
2019-05-07T04:06:23.198Z,101181.64
2019-05-07T04:08:48.878Z,101182.87
2019-05-07T04:11:15.843Z,101182.84
2019-05-07T04:13:44.033Z,101183.95
2019-05-07T04:16:13.581Z,101182.94
2019-05-07T04:18:39.871Z,101187.09
2019-05-07T04:21:06.602Z,101180.62
2019-05-07T04:23:34.206Z,101187.05
2019-05-07T04:26:04.226Z,101191.98
2019-05-07T04:28:49.946Z,101187.53
2019-05-07T04:31:17.139Z,101190.41
2019-05-07T04:33:44.211Z,101199.66
2019-05-07T04:36:14.088Z,101190.70
2019-05-07T04:38:43.757Z,101184.84
2019-05-07T04:41:09.703Z,101183.73
2019-05-07T04:43:36.801Z,101192.48
2019-05-07T04:46:03.993Z,101183.72
2019-05-07T04:48:33.733Z,101186.30
2019-05-07T04:51:03.521Z,101188.27
2019-05-07T04:53:32.723Z,101194.70
2019-05-07T04:55:58.732Z,101192.33
2019-05-07T04:58:26.758Z,101197.58
2019-05-07T05:00:54.018Z,101198.52
2019-05-07T05:03:23.761Z,101201.11
2019-05-07T05:05:53.212Z,101195.89
2019-05-07T05:08:19.754Z,101191.73
2019-05-07T05:10:46.463Z,101200.79
2019-05-07T05:13:13.273Z,101196.58
2019-05-07T05:15:42.926Z,101198.81
2019-05-07T05:18:09.636Z,101191.36
2019-05-07T05:20:38.916Z,101206.34
2019-05-07T05:23:14.424Z,101200.64
2019-05-07T05:25:43.250Z,101201.47
2019-05-07T05:28:12.396Z,101200.30
2019-05-07T05:30:44.329Z,101205.01
2019-05-07T05:33:12.962Z,101205.36
2019-05-07T05:35:42.874Z,101207.45
2019-05-07T05:38:12.452Z,101201.77
2019-05-07T05:40:39.427Z,101205.41
2019-05-07T05:43:08.891Z,101206.04
2019-05-07T05:45:38.279Z,101201.73
2019-05-07T05:48:08.387Z,101203.23
2019-05-07T05:50:49.404Z,101201.27
2019-05-07T05:53:34.632Z,101203.37
2019-05-07T05:56:12.998Z,101203.37
2019-05-07T05:58:47.979Z,101215.56
2019-05-07T06:01:34.022Z,101210.69
2019-05-07T06:04:06.246Z,101217.10
2019-05-07T06:06:35.974Z,101213.33
2019-05-07T06:09:09.491Z,101207.29
2019-05-07T06:11:52.036Z,101212.33
2019-05-07T06:14:29.404Z,101212.09
2019-05-07T06:17:10.283Z,101213.67
2019-05-07T06:19:39.180Z,101210.20
2019-05-07T06:22:23.027Z,101212.32
2019-05-07T06:24:52.141Z,101213.75
2019-05-07T06:27:19.163Z,101208.52
2019-05-07T06:29:45.931Z,101210.73
2019-05-07T06:32:15.017Z,101212.34
2019-05-07T06:34:44.648Z,101219.22
2019-05-07T06:37:12.592Z,101208.03
2019-05-07T06:39:44.211Z,101214.66
2019-05-07T06:42:33.108Z,101214.23
2019-05-07T06:45:12.346Z,101211.14
2019-05-07T06:47:39.790Z,101212.45
2019-05-07T06:50:06.639Z,101212.48
2019-05-07T06:52:33.582Z,101216.05
2019-05-07T06:55:00.358Z,101216.44
2019-05-07T06:57:28.517Z,101220.30
2019-05-07T06:59:57.195Z,101219.95
2019-05-07T07:02:25.863Z,101219.93
2019-05-07T07:04:57.341Z,101220.84
2019-05-07T07:07:32.292Z,101220.77
2019-05-07T07:09:56.683Z,101213.98
2019-05-07T07:12:28.128Z,101211.97
2019-05-07T07:14:57.959Z,101205.82
2019-05-07T07:17:25.056Z,101213.89
2019-05-07T07:19:52.383Z,101207.01
2019-05-07T07:22:19.348Z,101204.33
2019-05-07T07:24:46.037Z,101209.55
2019-05-07T07:27:13.339Z,101199.16
2019-05-07T07:29:45.880Z,101205.38
2019-05-07T07:32:14.712Z,101212.21
2019-05-07T07:34:43.305Z,101221.96
2019-05-07T07:37:15.581Z,101223.03
2019-05-07T07:39:42.876Z,101217.77
2019-05-07T07:42:12.269Z,101219.98
2019-05-07T07:44:38.379Z,101223.46
2019-05-07T07:47:05.329Z,101222.94
2019-05-07T07:49:32.983Z,101212.03
2019-05-07T07:52:00.215Z,101213.03
2019-05-07T07:54:27.261Z,101207.07
2019-05-07T07:57:05.157Z,101210.34
2019-05-07T07:59:46.322Z,101216.66
2019-05-07T08:02:22.841Z,101200.63
2019-05-07T08:04:49.267Z,101223.30
2019-05-07T08:07:15.988Z,101217.80
2019-05-07T08:09:43.827Z,101208.48
2019-05-07T08:12:12.902Z,101199.55
2019-05-07T08:14:39.765Z,101196.80
2019-05-07T08:17:08.234Z,101204.66
2019-05-07T08:19:36.224Z,101207.40
2019-05-07T08:22:03.177Z,101208.73
2019-05-07T08:24:32.103Z,101200.27
2019-05-07T08:26:58.948Z,101209.27
2019-05-07T08:29:25.871Z,101209.13
2019-05-07T08:32:02.419Z,101206.09
2019-05-07T08:34:42.802Z,101217.61
2019-05-07T08:37:11.900Z,101207.48
2019-05-07T08:39:39.282Z,101194.41
2019-05-07T08:42:06.217Z,101206.59
2019-05-07T08:44:42.854Z,101212.96
2019-05-07T08:47:28.305Z,101205.96
2019-05-07T08:49:55.641Z,101206.98
2019-05-07T08:52:25.882Z,101208.88
2019-05-07T08:54:52.319Z,101203.98
2019-05-07T08:57:19.638Z,101207.73
2019-05-07T08:59:58.368Z,101221.25
2019-05-07T09:02:17.017Z,101212.41
2019-05-07T09:04:44.301Z,101207.44
2019-05-07T09:07:12.980Z,101206.97
2019-05-07T09:09:42.459Z,101213.89
2019-05-07T09:12:09.277Z,101206.22
2019-05-07T09:14:36.339Z,101213.63
2019-05-07T09:17:03.347Z,101205.27
2019-05-07T09:19:32.184Z,101206.91
2019-05-07T09:21:59.123Z,101212.06
2019-05-07T09:24:25.956Z,101212.19
2019-05-07T09:26:54.663Z,101204.64
2019-05-07T09:29:23.558Z,101201.12
2019-05-07T09:31:52.692Z,101214.61
2019-05-07T09:34:24.299Z,101219.88
2019-05-07T09:36:56.436Z,101214.98
2019-05-07T09:39:23.071Z,101218.16
2019-05-07T09:41:50.048Z,101211.97
2019-05-07T09:44:16.797Z,101208.38
2019-05-07T09:46:46.579Z,101212.09
2019-05-07T09:49:12.151Z,101219.97
2019-05-07T09:51:39.079Z,101222.73
2019-05-07T09:54:05.811Z,101216.56
2019-05-07T09:56:33.698Z,101215.01
2019-05-07T09:59:02.279Z,101218.09
2019-05-07T10:01:29.248Z,101214.06
2019-05-07T10:03:56.368Z,101213.44
2019-05-07T10:06:23.387Z,101210.88
2019-05-07T10:08:52.298Z,101211.83
2019-05-07T10:11:22.522Z,101205.33
2019-05-07T10:13:52.400Z,101206.94
2019-05-07T10:16:21.100Z,101200.99
2019-05-07T10:18:48.051Z,101200.91
2019-05-07T10:21:15.098Z,101203.77
2019-05-07T10:23:41.770Z,101196.07
2019-05-07T10:26:08.787Z,101200.63
2019-05-07T10:28:35.936Z,101207.77
2019-05-07T10:31:03.089Z,101203.34
2019-05-07T10:33:31.766Z,101202.03
2019-05-07T10:35:58.624Z,101201.39
2019-05-07T10:38:25.665Z,101203.86
2019-05-07T10:40:52.407Z,101204.92
2019-05-07T10:43:19.279Z,101211.44
2019-05-07T10:45:48.075Z,101202.63
2019-05-07T10:48:19.523Z,101203.02
2019-05-07T10:50:48.180Z,101206.00
2019-05-07T10:53:14.840Z,101190.69
2019-05-07T10:55:42.895Z,101205.23
2019-05-07T10:58:10.639Z,101210.31
2019-05-07T11:00:37.606Z,101218.59
2019-05-07T11:03:06.465Z,101209.14
2019-05-07T11:05:33.481Z,101211.05
2019-05-07T11:08:02.285Z,101200.83
2019-05-07T11:10:29.478Z,101203.94
2019-05-07T11:12:56.152Z,101207.41
2019-05-07T11:15:23.082Z,101203.47
2019-05-07T11:18:07.027Z,101212.53
2019-05-07T11:20:46.460Z,101199.97
2019-05-07T11:23:03.301Z,101205.61
2019-05-07T11:25:31.426Z,101196.66
2019-05-07T11:27:58.269Z,101210.39
2019-05-07T11:30:25.117Z,101203.42
2019-05-07T11:32:52.266Z,101206.48
2019-05-07T11:35:19.621Z,101206.87
2019-05-07T11:37:46.568Z,101197.92
2019-05-07T11:40:13.720Z,101194.20
2019-05-07T11:42:45.513Z,101196.49
2019-05-07T11:45:15.389Z,101194.03
2019-05-07T11:47:42.273Z,101193.91
2019-05-07T11:50:14.791Z,101195.30
2019-05-07T11:52:43.786Z,101203.34
2019-05-07T11:55:12.046Z,101195.53
2019-05-07T11:57:38.851Z,101199.20
2019-05-07T12:00:07.976Z,101192.63
2019-05-07T12:02:35.094Z,101193.61
2019-05-07T12:05:02.071Z,101182.14
2019-05-07T12:07:29.453Z,101185.58
2019-05-07T12:09:56.183Z,101190.34
2019-05-07T12:12:23.876Z,101191.47
2019-05-07T12:14:51.863Z,101206.66
2019-05-07T12:17:18.912Z,101197.72
2019-05-07T12:19:46.115Z,101189.77
2019-05-07T12:22:14.942Z,101189.50
2019-05-07T12:24:41.997Z,101197.31
2019-05-07T12:27:11.769Z,101190.70
2019-05-07T12:29:38.764Z,101188.20
2019-05-07T12:32:07.468Z,101186.86
2019-05-07T12:34:36.431Z,101194.40
2019-05-07T12:37:03.471Z,101192.12
2019-05-07T12:39:31.840Z,101187.80
2019-05-07T12:41:59.087Z,101185.17
2019-05-07T12:44:26.169Z,101183.24
2019-05-07T12:46:53.051Z,101182.27
2019-05-07T12:49:21.990Z,101174.69
2019-05-07T12:51:56.373Z,101190.84
2019-05-07T12:54:34.655Z,101195.14
2019-05-07T12:57:02.457Z,101196.19
2019-05-07T12:59:29.083Z,101189.66
2019-05-07T13:02:21.595Z,101190.43
2019-05-07T13:04:36.087Z,101189.95
2019-05-07T13:07:07.845Z,101193.70
2019-05-07T13:09:34.862Z,101187.66
2019-05-07T13:12:03.038Z,101185.39
2019-05-07T13:14:30.054Z,101188.61
2019-05-07T13:16:57.535Z,101178.88
2019-05-07T13:19:24.689Z,101174.55
2019-05-07T13:21:51.817Z,101173.80
2019-05-07T13:24:19.750Z,101171.61
2019-05-07T13:26:46.934Z,101185.27
2019-05-07T13:29:13.674Z,101180.47
2019-05-07T13:31:42.876Z,101183.48
2019-05-07T13:34:12.260Z,101183.97
2019-05-07T13:36:41.072Z,101190.27
2019-05-07T13:39:11.200Z,101182.85
2019-05-07T13:41:43.346Z,101192.19
2019-05-07T13:44:22.857Z,101195.94
2019-05-07T13:46:53.008Z,101196.77
2019-05-07T13:49:21.839Z,101187.38
2019-05-07T13:52:01.012Z,101187.51
2019-05-07T13:54:18.632Z,101189.98
2019-05-07T13:56:45.739Z,101185.14
2019-05-07T13:59:13.289Z,101181.35
2019-05-07T14:01:46.156Z,101186.20
2019-05-07T14:04:13.207Z,101190.50
2019-05-07T14:06:42.602Z,101186.26
2019-05-07T14:09:14.699Z,101191.57
2019-05-07T14:11:42.333Z,101189.70
2019-05-07T14:14:09.380Z,101191.24
2019-05-07T14:16:36.131Z,101194.58
2019-05-07T14:19:04.203Z,101186.52
2019-05-07T14:21:32.487Z,101192.92
2019-05-07T14:23:59.861Z,101195.27
2019-05-07T14:26:26.913Z,101196.75
2019-05-07T14:28:53.940Z,101193.37
2019-05-07T14:31:20.981Z,101190.18
2019-05-07T14:33:54.220Z,101194.69
2019-05-07T14:36:38.357Z,101193.59
2019-05-07T14:39:06.383Z,101197.27
2019-05-07T14:41:33.531Z,101195.41
2019-05-07T14:44:02.274Z,101190.92
2019-05-07T14:46:43.635Z,101195.28
2019-05-07T14:48:57.789Z,101203.68
2019-05-07T14:51:24.512Z,101201.22
2019-05-07T14:53:51.563Z,101198.23
2019-05-07T14:56:18.598Z,101201.62
2019-05-07T14:58:45.343Z,101204.38
2019-05-07T15:01:12.186Z,101206.63
2019-05-07T15:03:42.233Z,101203.57
2019-05-07T15:06:09.053Z,101200.95
2019-05-07T15:08:36.117Z,101206.42
2019-05-07T15:11:03.090Z,101195.72
2019-05-07T15:13:32.150Z,101203.84
2019-05-07T15:15:59.389Z,101198.20
2019-05-07T15:18:28.435Z,101203.74
2019-05-07T15:20:55.346Z,101206.26
2019-05-07T15:23:30.006Z,101208.77
2019-05-07T15:25:57.053Z,101206.16
2019-05-07T15:28:23.990Z,101206.53
2019-05-07T15:30:52.871Z,101202.25
2019-05-07T15:33:21.768Z,101207.55
2019-05-07T15:35:48.709Z,101201.25
2019-05-07T15:38:15.639Z,101209.35
2019-05-07T15:40:42.566Z,101207.48
2019-05-07T15:43:09.613Z,101202.52
2019-05-07T15:45:36.866Z,101200.95
2019-05-07T15:48:03.711Z,101204.62
2019-05-07T15:50:32.259Z,101206.70
2019-05-07T15:53:08.131Z,101207.37
2019-05-07T15:55:35.300Z,101204.59
2019-05-07T15:58:02.792Z,101201.78
2019-05-07T16:00:33.508Z,101198.78
2019-05-07T16:03:17.506Z,101202.25
2019-05-07T16:05:44.708Z,101202.28
2019-05-07T16:08:13.328Z,101198.61
2019-05-07T16:10:42.164Z,101205.31
2019-05-07T16:13:13.678Z,101207.44
2019-05-07T16:15:42.349Z,101208.68
2019-05-07T16:18:13.079Z,101206.03
2019-05-07T16:20:40.129Z,101208.31
2019-05-07T16:23:14.695Z,101210.30
2019-05-07T16:25:36.027Z,101217.98
2019-05-07T16:28:04.940Z,101214.81
2019-05-07T16:30:32.354Z,101213.09
2019-05-07T16:33:01.701Z,101214.47
2019-05-07T16:35:28.116Z,101216.13
2019-05-07T16:37:55.709Z,101213.88
2019-05-07T16:40:22.957Z,101216.33
2019-05-07T16:42:52.227Z,101214.11
2019-05-07T16:45:19.813Z,101217.68
2019-05-07T16:47:46.774Z,101218.70
2019-05-07T16:50:13.574Z,101212.55
2019-05-07T16:52:42.058Z,101214.88
2019-05-07T16:55:09.235Z,101217.95
2019-05-07T16:57:42.353Z,101215.83
2019-05-07T17:00:11.890Z,101223.48
2019-05-07T17:08:46.595Z,101228.25
2019-05-07T17:11:13.615Z,101221.64
2019-05-07T17:13:42.286Z,101229.42
2019-05-07T17:16:09.103Z,101223.95
2019-05-07T17:18:36.276Z,101227.61
2019-05-07T17:21:03.303Z,101234.31
2019-05-07T17:23:42.764Z,101235.00
2019-05-07T17:25:59.052Z,101235.88
2019-05-07T17:28:27.285Z,101233.97
2019-05-07T17:30:54.059Z,101234.75
2019-05-07T17:33:22.853Z,101238.62
2019-05-07T17:35:51.576Z,101237.36
2019-05-07T17:38:17.989Z,101239.07
2019-05-07T17:40:44.776Z,101239.52
2019-05-07T17:43:12.310Z,101242.22
2019-05-07T17:45:42.800Z,101238.69
2019-05-07T17:48:12.274Z,101244.89
2019-05-07T17:50:44.046Z,101245.39
2019-05-07T17:53:11.940Z,101251.10
2019-05-07T17:55:39.048Z,101251.60
2019-05-07T17:58:06.412Z,101257.34
2019-05-07T18:00:33.305Z,101258.62
2019-05-07T18:03:18.522Z,101256.48
2019-05-07T18:05:46.150Z,101260.14
2019-05-07T18:08:13.058Z,101254.85
2019-05-07T18:10:42.310Z,101260.14
2019-05-07T18:13:09.156Z,101261.86
2019-05-07T18:15:36.067Z,101265.45
2019-05-07T18:18:07.833Z,101264.63
2019-05-07T18:20:35.050Z,101268.17
2019-05-07T18:23:02.635Z,101271.77
2019-05-07T18:25:32.215Z,101275.78
2019-05-07T18:27:58.611Z,101273.75
2019-05-07T18:30:25.447Z,101277.26
2019-05-07T18:33:10.750Z,101276.00
2019-05-07T18:35:38.003Z,101271.11
2019-05-07T18:38:04.752Z,101276.39
2019-05-07T18:40:31.748Z,101272.42
2019-05-07T18:42:58.682Z,101277.28
2019-05-07T18:45:26.113Z,101280.79
2019-05-07T18:47:53.261Z,101282.10
2019-05-07T18:50:22.437Z,101287.41
2019-05-07T18:52:49.090Z,101280.37
2019-05-07T18:55:16.243Z,101273.75
2019-05-07T18:57:43.690Z,101285.17
2019-05-07T19:00:13.847Z,101282.13
2019-05-07T19:02:42.711Z,101287.86
2019-05-07T19:05:09.712Z,101291.34
2019-05-07T19:07:36.849Z,101286.15
2019-05-07T19:10:03.803Z,101296.23
2019-05-07T19:12:32.941Z,101294.94
2019-05-07T19:15:00.008Z,101296.70
2019-05-07T19:17:27.036Z,101297.59
2019-05-07T19:19:54.016Z,101293.20
2019-05-07T19:22:22.220Z,101293.65
2019-05-07T19:24:49.368Z,101290.57
2019-05-07T19:27:16.480Z,101291.48
2019-05-07T19:29:45.791Z,101293.27
2019-05-07T19:32:14.049Z,101293.30
2019-05-07T19:34:41.776Z,101291.09
2019-05-07T19:37:08.614Z,101296.38
2019-05-07T19:39:35.837Z,101295.06
2019-05-07T19:42:02.781Z,101297.70
2019-05-07T19:44:29.701Z,101294.19
2019-05-07T19:46:56.591Z,101301.64
2019-05-07T19:49:24.052Z,101301.23
2019-05-07T19:51:52.343Z,101302.08
2019-05-07T19:54:19.317Z,101305.63
2019-05-07T19:56:46.065Z,101315.30
2019-05-07T19:59:13.147Z,101308.27
2019-05-07T20:01:42.550Z,101307.36
2019-05-07T20:04:09.630Z,101306.05
2019-05-07T20:06:36.719Z,101306.92
2019-05-07T20:09:12.023Z,101305.17
2019-05-07T20:11:46.413Z,101313.88
2019-05-07T20:14:14.269Z,101307.80
2019-05-07T20:16:42.020Z,101305.63
2019-05-07T20:19:11.884Z,101304.31
2019-05-07T20:21:38.557Z,101306.48
2019-05-07T20:24:05.551Z,101303.88
2019-05-07T20:26:32.900Z,101309.12
2019-05-07T20:28:59.781Z,101311.77
2019-05-07T20:31:27.894Z,101301.24
2019-05-07T20:33:54.819Z,101307.39
2019-05-07T20:36:22.022Z,101304.73
2019-05-07T20:38:49.135Z,101307.75
2019-05-07T20:41:16.570Z,101306.45
2019-05-07T20:43:43.557Z,101308.16
2019-05-07T20:46:11.998Z,101313.82
2019-05-07T20:48:39.308Z,101305.53
2019-05-07T20:51:06.519Z,101300.70
2019-05-07T20:53:52.300Z,101301.59
2019-05-07T20:56:22.561Z,101300.30
2019-05-07T20:58:51.914Z,101301.20
2019-05-07T21:01:18.560Z,101302.53
2019-05-07T21:03:45.313Z,101302.00
2019-05-07T21:06:12.170Z,101316.03
2019-05-07T21:08:39.213Z,101310.78
2019-05-07T21:11:06.287Z,101319.50
2019-05-07T21:13:34.961Z,101319.38
2019-05-07T21:16:03.322Z,101315.02
2019-05-07T21:18:32.573Z,101322.52
2019-05-07T21:20:59.251Z,101316.84
2019-05-07T21:23:26.617Z,101316.86
2019-05-07T21:25:53.399Z,101313.78
2019-05-07T21:28:20.710Z,101313.34
2019-05-07T21:30:47.867Z,101311.16
2019-05-07T21:33:14.888Z,101312.44
2019-05-07T21:35:42.956Z,101310.24
2019-05-07T21:38:10.058Z,101305.00
2019-05-07T21:40:37.077Z,101309.73
2019-05-07T21:43:04.151Z,101306.64
2019-05-07T21:45:32.743Z,101305.70
2019-05-07T21:48:02.418Z,101306.58
2019-05-07T21:50:30.550Z,101310.59
2019-05-07T21:53:08.906Z,101310.23
2019-05-07T21:55:41.816Z,101309.81
2019-05-07T21:58:24.910Z,101314.64
2019-05-07T22:01:04.251Z,101311.13
2019-05-07T22:03:34.684Z,101310.19
2019-05-07T22:06:02.544Z,101323.22
2019-05-07T22:08:29.491Z,101321.76
2019-05-07T22:10:56.870Z,101325.39
2019-05-07T22:13:28.065Z,101326.20
2019-05-07T22:15:55.141Z,101323.22
2019-05-07T22:18:22.675Z,101328.02
2019-05-07T22:20:49.543Z,101326.55
2019-05-07T22:23:16.418Z,101337.81
2019-05-07T22:25:43.432Z,101326.73
2019-05-07T22:28:13.108Z,101326.08
2019-05-07T22:30:53.505Z,101329.18
2019-05-07T22:33:22.405Z,101330.78
2019-05-07T22:35:52.263Z,101326.16
2019-05-07T22:38:22.833Z,101324.46
2019-05-07T22:40:49.771Z,101321.41
2019-05-07T22:43:17.348Z,101326.25
2019-05-07T22:45:44.747Z,101328.84
2019-05-07T22:48:12.198Z,101326.20
2019-05-07T22:50:39.414Z,101330.59
2019-05-07T22:53:06.361Z,101339.56
2019-05-07T22:55:33.310Z,101327.49
2019-05-07T22:58:07.994Z,101327.30
2019-05-07T23:00:39.826Z,101320.31
2019-05-07T23:03:06.760Z,101328.20
2019-05-07T23:05:33.996Z,101327.86
2019-05-07T23:08:02.373Z,101327.91
2019-05-07T23:10:29.730Z,101326.00
2019-05-07T23:12:56.760Z,101337.42
2019-05-07T23:15:24.036Z,101325.07
2019-05-07T23:17:53.125Z,101329.70
2019-05-07T23:20:24.185Z,101318.02
2019-05-07T23:22:48.438Z,101322.05
2019-05-07T23:25:15.321Z,101317.17
2019-05-07T23:27:42.065Z,101323.69
2019-05-07T23:30:09.233Z,101322.47
2019-05-07T23:32:36.339Z,101325.19
2019-05-07T23:35:03.494Z,101317.59
2019-05-07T23:37:30.385Z,101316.70
2019-05-07T23:39:59.428Z,101314.96
2019-05-07T23:42:31.065Z,101307.80
2019-05-07T23:44:58.315Z,101310.73
2019-05-07T23:47:25.286Z,101316.52
2019-05-07T23:49:52.378Z,101313.05
2019-05-07T23:52:19.549Z,101309.20
2019-05-07T23:54:46.442Z,101313.59
2019-05-07T23:57:15.433Z,101315.80
2019-05-07T23:59:42.488Z,101322.80
